Time;durP1;ratioP1;P1;durP2;ratioP2;P2;SDS_P1;SDS_P2;PMS_P1;PMS_P2;Temp;Humidity;BMP_temperature;BMP_pressure;BME280_temperature;BME280_humidity;BME280_pressure;Samples;Min_cycle;Max_cycle;Signal;HPM_P1;HPM_P2
2022/09/18 00:01:11;;;;;;;7.13;1.70;;;12.70;99.90;;;;;;5001955;28;20803;-69
2022/09/18 00:03:39;;;;;;;3.73;1.73;;;12.70;99.90;;;;;;5001122;28;20460;-69
2022/09/18 00:06:13;;;;;;;3.50;1.80;;;12.80;99.90;;;;;;4997410;28;20429;-68
2022/09/18 00:08:39;;;;;;;7.33;1.80;;;12.80;99.90;;;;;;4998224;28;20419;-69
2022/09/18 00:11:07;;;;;;;3.83;2.00;;;12.80;99.90;;;;;;4982843;28;20471;-68
2022/09/18 00:13:34;;;;;;;3.60;1.70;;;12.80;99.90;;;;;;5001641;28;20877;-68
2022/09/18 00:16:01;;;;;;;4.03;2.07;;;12.80;99.90;;;;;;5000904;28;20436;-68
2022/09/18 00:18:26;;;;;;;3.00;1.70;;;12.80;99.90;;;;;;5001357;28;20753;-68
2022/09/18 00:20:52;;;;;;;8.03;2.00;;;12.80;99.90;;;;;;5001192;28;20511;-70
2022/09/18 00:23:18;;;;;;;3.20;2.00;;;12.70;99.90;;;;;;5001171;28;20209;-69
2022/09/18 00:25:43;;;;;;;5.27;2.20;;;12.70;99.90;;;;;;5001227;28;20599;-69
2022/09/18 00:28:09;;;;;;;2.90;1.77;;;12.70;99.90;;;;;;5001313;28;20623;-69
2022/09/18 00:30:34;;;;;;;6.50;1.60;;;12.80;99.90;;;;;;5000576;28;20657;-69
2022/09/18 00:33:00;;;;;;;4.93;1.70;;;12.70;99.90;;;;;;4999801;28;20600;-69
2022/09/18 00:35:25;;;;;;;4.50;1.70;;;12.70;99.90;;;;;;5000647;28;20608;-69
2022/09/18 00:37:51;;;;;;;3.97;1.67;;;12.70;99.90;;;;;;4983625;28;20181;-67
2022/09/18 00:40:17;;;;;;;7.27;2.20;;;12.70;99.90;;;;;;4985304;28;20177;-69
2022/09/18 00:42:43;;;;;;;3.50;1.60;;;12.70;99.90;;;;;;4997782;28;20477;-69
2022/09/18 00:45:09;;;;;;;3.63;2.00;;;12.80;99.90;;;;;;4997912;28;20181;-70
2022/09/18 00:47:47;;;;;;;3.00;2.03;;;12.80;99.90;;;;;;5001636;28;20878;-69
2022/09/18 00:50:17;;;;;;;6.83;1.77;;;12.70;99.90;;;;;;4996184;28;20486;-68
2022/09/18 00:53:06;;;;;;;2.57;1.63;;;12.70;99.90;;;;;;4996717;28;20558;-69
2022/09/18 00:55:34;;;;;;;4.07;1.67;;;12.50;99.90;;;;;;4997047;28;20447;-68
2022/09/18 00:58:01;;;;;;;4.33;1.40;;;12.50;99.90;;;;;;5001240;28;21133;-68
2022/09/18 01:00:28;;;;;;;4.20;2.00;;;12.60;99.90;;;;;;4998026;28;20436;-70
2022/09/18 01:02:54;;;;;;;3.93;1.97;;;12.60;99.90;;;;;;5000475;28;20455;-69
2022/09/18 01:06:14;;;;;;;2.20;1.60;;;12.50;99.90;;;;;;4996408;28;20448;-69
2022/09/18 01:09:00;;;;;;;3.20;1.60;;;12.50;99.90;;;;;;4918529;29;20856;-69
2022/09/18 01:11:35;;;;;;;2.73;1.50;;;12.60;99.90;;;;;;5002453;28;20422;-68
2022/09/18 01:14:07;;;;;;;2.80;1.47;;;12.60;99.90;;;;;;4998762;28;20856;-68
2022/09/18 01:16:52;;;;;;;2.93;1.97;;;12.60;99.90;;;;;;4998435;28;20439;-68
2022/09/18 01:19:20;;;;;;;2.87;1.90;;;12.60;99.90;;;;;;4997288;28;21008;-69
2022/09/18 01:22:29;;;;;;;2.67;1.97;;;12.60;99.90;;;;;;4997654;28;20575;-68
2022/09/18 01:25:13;;;;;;;3.97;2.13;;;12.50;99.90;;;;;;4985384;28;21190;-67
2022/09/18 01:27:57;;;;;;;6.00;1.70;;;12.60;99.90;;;;;;4997854;28;20792;-68
2022/09/18 01:30:23;;;;;;;3.50;2.20;;;12.50;99.90;;;;;;4998128;28;20859;-68
2022/09/18 01:32:56;;;;;;;4.90;1.70;;;12.50;99.90;;;;;;5000042;28;20843;-68
2022/09/18 01:35:25;;;;;;;3.30;1.93;;;12.40;99.90;;;;;;5000507;28;20427;-68
2022/09/18 01:38:07;;;;;;;2.80;2.03;;;12.40;99.90;;;;;;5000079;28;20428;-68
2022/09/18 01:40:38;;;;;;;4.07;1.83;;;12.40;99.90;;;;;;5000099;28;20504;-68
2022/09/18 01:43:09;;;;;;;3.37;1.80;;;12.50;99.90;;;;;;4996327;28;20432;-68
2022/09/18 01:45:42;;;;;;;10.23;2.00;;;12.60;99.90;;;;;;4999902;28;20412;-69
2022/09/18 01:48:13;;;;;;;3.73;1.90;;;12.60;99.90;;;;;;4999210;28;20412;-69
2022/09/18 01:50:44;;;;;;;6.50;1.80;;;12.60;99.90;;;;;;4998875;28;20439;-69
2022/09/18 01:53:23;;;;;;;6.10;1.87;;;12.60;99.90;;;;;;4998588;28;20510;-69
2022/09/18 01:56:04;;;;;;;4.50;2.10;;;12.60;99.90;;;;;;5002802;28;20551;-69
2022/09/18 01:58:32;;;;;;;8.60;3.20;;;12.60;99.90;;;;;;4999874;28;20436;-68
2022/09/18 02:01:03;;;;;;;4.23;1.83;;;12.50;99.90;;;;;;4999774;28;20447;-69
2022/09/18 02:03:40;;;;;;;2.87;1.70;;;12.50;99.90;;;;;;4999030;28;20835;-71
2022/09/18 02:06:16;;;;;;;5.37;2.20;;;12.60;99.90;;;;;;4998073;28;20621;-69
2022/09/18 02:08:48;;;;;;;2.97;1.50;;;12.50;99.90;;;;;;4999288;28;20451;-69
2022/09/18 02:11:16;;;;;;;3.80;1.60;;;12.40;99.90;;;;;;4984490;28;20436;-69
2022/09/18 02:14:07;;;;;;;4.43;1.67;;;12.40;99.90;;;;;;5002304;28;20484;-69
2022/09/18 02:16:50;;;;;;;3.70;1.83;;;12.40;99.90;;;;;;4982981;28;20451;-69
2022/09/18 02:20:12;;;;;;;4.03;1.87;;;12.50;99.90;;;;;;4998482;28;20877;-67
2022/09/18 02:22:42;;;;;;;2.47;2.20;;;12.50;99.90;;;;;;4902519;29;20494;-68
2022/09/18 02:25:12;;;;;;;5.93;2.03;;;12.40;99.90;;;;;;4978187;28;20531;-67
2022/09/18 02:27:40;;;;;;;3.63;2.00;;;12.50;99.90;;;;;;4996555;28;20598;-67
2022/09/18 02:30:07;;;;;;;4.50;1.83;;;12.50;99.90;;;;;;4998668;28;20536;-68
2022/09/18 02:32:36;;;;;;;5.97;3.30;;;12.60;99.90;;;;;;5000234;28;22492;-71
2022/09/18 02:35:02;;;;;;;11.33;2.50;;;12.60;99.90;;;;;;5000367;28;20967;-68
2022/09/18 02:38:19;;;;;;;4.50;2.03;;;12.50;99.90;;;;;;4998044;28;20444;-68
2022/09/18 02:40:57;;;;;;;4.97;1.90;;;12.40;99.90;;;;;;4919744;29;20448;-68
2022/09/18 02:43:54;;;;;;;6.37;2.10;;;12.40;99.90;;;;;;4918940;29;20471;-68
2022/09/18 02:46:44;;;;;;;4.97;1.70;;;12.40;99.90;;;;;;4981579;28;20456;-67
2022/09/18 02:49:39;;;;;;;3.73;1.77;;;12.40;99.90;;;;;;4997170;28;20433;-68
2022/09/18 02:52:22;;;;;;;8.13;1.93;;;12.40;99.90;;;;;;4997475;28;20436;-68
2022/09/18 02:54:56;;;;;;;3.10;2.07;;;12.30;99.90;;;;;;4996069;28;20436;-68
2022/09/18 02:57:43;;;;;;;2.70;2.00;;;12.30;99.90;;;;;;4997918;28;20435;-69
2022/09/18 03:00:15;;;;;;;4.67;1.90;;;12.30;99.90;;;;;;4997504;28;20994;-68
2022/09/18 03:02:42;;;;;;;4.37;1.83;;;12.40;99.90;;;;;;4999372;28;20536;-69
2022/09/18 03:05:08;;;;;;;6.83;1.90;;;12.30;99.90;;;;;;5001583;28;20512;-68
2022/09/18 03:07:33;;;;;;;5.17;2.70;;;12.30;99.90;;;;;;5001207;28;20440;-68
2022/09/18 03:09:59;;;;;;;4.53;2.27;;;12.40;99.90;;;;;;5001726;28;20432;-67
2022/09/18 03:12:24;;;;;;;4.77;1.80;;;12.40;99.90;;;;;;5001148;28;20216;-68
2022/09/18 03:14:50;;;;;;;2.70;2.07;;;12.50;99.90;;;;;;5001235;28;20173;-68
2022/09/18 03:17:16;;;;;;;1.93;1.70;;;12.50;99.90;;;;;;5000635;28;20252;-67
2022/09/18 03:19:43;;;;;;;4.37;1.70;;;12.50;99.90;;;;;;4983528;28;20186;-69
2022/09/18 03:22:09;;;;;;;7.80;2.13;;;12.50;99.90;;;;;;5000137;28;20212;-70
2022/09/18 03:24:34;;;;;;;5.20;1.80;;;12.50;99.90;;;;;;4999643;28;20506;-69
2022/09/18 03:27:00;;;;;;;6.73;2.00;;;12.50;99.90;;;;;;5001544;28;20885;-68
2022/09/18 03:29:26;;;;;;;2.40;1.63;;;12.50;99.90;;;;;;5000732;28;20173;-69
2022/09/18 03:31:51;;;;;;;3.60;1.90;;;12.50;99.90;;;;;;5000427;28;20287;-68
2022/09/18 03:34:17;;;;;;;4.43;2.17;;;12.50;99.90;;;;;;4996399;28;20215;-68
2022/09/18 03:36:42;;;;;;;6.87;1.93;;;12.60;99.90;;;;;;5000728;28;20182;-69
2022/09/18 03:39:08;;;;;;;4.90;1.90;;;12.60;99.90;;;;;;5000433;28;20263;-67
2022/09/18 03:41:33;;;;;;;4.83;2.10;;;12.50;99.90;;;;;;4999962;28;20188;-67
2022/09/18 03:43:59;;;;;;;5.23;2.20;;;12.60;99.90;;;;;;5000838;28;20742;-69
2022/09/18 03:46:25;;;;;;;2.70;1.73;;;12.60;99.90;;;;;;4999843;28;20716;-69
2022/09/18 03:48:51;;;;;;;3.30;1.93;;;12.60;99.90;;;;;;4999377;28;20200;-69
2022/09/18 03:51:18;;;;;;;6.93;2.00;;;12.50;99.90;;;;;;5001978;28;20185;-69
2022/09/18 03:53:45;;;;;;;5.43;2.20;;;12.50;99.90;;;;;;5001383;28;20495;-69
2022/09/18 03:56:12;;;;;;;3.87;2.33;;;12.50;99.90;;;;;;4998933;28;20642;-69
2022/09/18 03:58:38;;;;;;;6.70;2.13;;;12.60;99.90;;;;;;5000396;28;20795;-68
2022/09/18 04:01:05;;;;;;;4.33;2.10;;;12.60;99.90;;;;;;5001158;28;20420;-68
2022/09/18 04:03:30;;;;;;;3.63;1.90;;;12.60;99.90;;;;;;4996559;28;20460;-68
2022/09/18 04:05:56;;;;;;;3.57;2.37;;;12.60;99.90;;;;;;4998693;28;20883;-68
2022/09/18 04:08:21;;;;;;;3.73;2.23;;;12.60;99.90;;;;;;5001965;28;20678;-70
2022/09/18 04:10:47;;;;;;;3.27;2.30;;;12.60;99.90;;;;;;4998865;28;20189;-67
2022/09/18 04:13:12;;;;;;;3.17;2.00;;;12.50;99.90;;;;;;5001491;28;20248;-69
2022/09/18 04:15:38;;;;;;;5.53;2.20;;;12.40;99.90;;;;;;4999148;28;20177;-68
2022/09/18 04:18:04;;;;;;;4.03;1.90;;;12.50;99.90;;;;;;5000211;28;20673;-70
2022/09/18 04:20:30;;;;;;;5.10;1.83;;;12.40;99.90;;;;;;5002593;28;20243;-69
2022/09/18 04:22:58;;;;;;;4.83;2.03;;;12.40;99.90;;;;;;5001953;28;20397;-69
2022/09/18 04:25:24;;;;;;;3.40;2.30;;;12.50;99.90;;;;;;5000968;28;20469;-69
2022/09/18 04:27:51;;;;;;;2.87;2.33;;;12.50;99.90;;;;;;5000995;28;20845;-66
2022/09/18 04:30:16;;;;;;;6.53;2.10;;;12.40;99.90;;;;;;4998026;28;20200;-69
2022/09/18 04:32:43;;;;;;;3.17;2.10;;;12.50;99.90;;;;;;4999302;28;20981;-69
2022/09/18 04:35:08;;;;;;;3.37;1.97;;;12.50;99.90;;;;;;5000053;28;20260;-68
2022/09/18 04:37:34;;;;;;;2.97;2.23;;;12.50;99.90;;;;;;4998451;28;20843;-69
2022/09/18 04:39:59;;;;;;;4.80;2.40;;;12.50;99.90;;;;;;5001138;28;20181;-69
2022/09/18 04:42:25;;;;;;;4.17;2.10;;;12.60;99.90;;;;;;4999708;28;20201;-68
2022/09/18 04:44:50;;;;;;;5.63;2.37;;;12.60;99.90;;;;;;5000223;28;20180;-68
2022/09/18 04:47:16;;;;;;;8.10;2.73;;;12.50;99.90;;;;;;4999897;28;20177;-67
2022/09/18 04:49:41;;;;;;;11.40;2.83;;;12.50;99.90;;;;;;4999431;28;20185;-69
2022/09/18 04:52:07;;;;;;;7.53;2.23;;;12.50;99.90;;;;;;4998412;28;20177;-69
2022/09/18 04:54:33;;;;;;;8.40;2.57;;;12.50;99.90;;;;;;4998606;28;20209;-69
2022/09/18 04:56:58;;;;;;;4.43;2.50;;;12.50;99.90;;;;;;4998924;28;20177;-69
2022/09/18 04:59:24;;;;;;;4.43;2.20;;;12.50;99.90;;;;;;4999749;28;20209;-68
2022/09/18 05:01:50;;;;;;;4.33;2.63;;;12.50;99.90;;;;;;4999692;28;20188;-68
2022/09/18 05:04:15;;;;;;;4.50;2.13;;;12.50;99.90;;;;;;4999722;28;20202;-69
2022/09/18 05:06:41;;;;;;;4.37;1.80;;;12.50;99.90;;;;;;4998381;28;20197;-69
2022/09/18 05:09:06;;;;;;;5.43;2.33;;;12.50;99.90;;;;;;4999356;28;20260;-68
2022/09/18 05:11:32;;;;;;;6.10;1.83;;;12.40;99.90;;;;;;5003074;28;20176;-68
2022/09/18 05:13:58;;;;;;;4.50;2.03;;;12.40;99.90;;;;;;4997723;28;20267;-67
2022/09/18 05:16:24;;;;;;;7.70;2.40;;;12.40;99.90;;;;;;4996243;28;20177;-68
2022/09/18 05:18:51;;;;;;;7.33;2.50;;;12.30;99.90;;;;;;4997963;28;20527;-69
2022/09/18 05:21:17;;;;;;;8.43;3.43;;;12.40;99.90;;;;;;4996417;28;21014;-69
2022/09/18 05:23:44;;;;;;;6.27;2.50;;;12.40;99.90;;;;;;4977552;28;20460;-69
2022/09/18 05:26:10;;;;;;;4.70;2.60;;;12.40;99.90;;;;;;5000094;28;20420;-68
2022/09/18 05:28:36;;;;;;;3.47;2.00;;;12.30;99.90;;;;;;4997639;28;20506;-68
2022/09/18 05:31:02;;;;;;;4.80;2.33;;;12.30;99.90;;;;;;4980119;28;20433;-68
2022/09/18 05:33:27;;;;;;;11.30;2.77;;;12.30;99.90;;;;;;5003240;28;20471;-68
2022/09/18 05:35:56;;;;;;;7.30;2.53;;;12.30;99.90;;;;;;5002614;28;20196;-68
2022/09/18 05:38:23;;;;;;;5.40;2.40;;;12.30;99.90;;;;;;5003247;28;20440;-70
2022/09/18 05:40:48;;;;;;;7.60;2.17;;;12.30;99.90;;;;;;5003244;28;20420;-68
2022/09/18 05:43:14;;;;;;;6.60;2.30;;;12.30;99.90;;;;;;5003512;28;20506;-68
2022/09/18 05:45:40;;;;;;;5.10;2.50;;;12.30;99.90;;;;;;5003560;28;20205;-67
2022/09/18 05:48:06;;;;;;;3.90;1.87;;;12.40;99.90;;;;;;5002958;28;20871;-66
2022/09/18 05:50:33;;;;;;;4.90;2.13;;;12.40;99.90;;;;;;5005719;28;20231;-69
2022/09/18 05:53:14;;;;;;;6.13;2.20;;;12.30;99.90;;;;;;5001412;28;21054;-69
2022/09/18 05:55:40;;;;;;;4.30;2.00;;;12.40;99.90;;;;;;4999949;28;20409;-68
2022/09/18 05:58:07;;;;;;;6.50;2.77;;;12.40;99.90;;;;;;5003569;28;20431;-68
2022/09/18 06:00:34;;;;;;;4.43;1.83;;;12.50;99.90;;;;;;4999283;28;20666;-67
2022/09/18 06:03:05;;;;;;;4.60;2.00;;;12.50;99.90;;;;;;5001253;28;20791;-69
2022/09/18 06:05:33;;;;;;;4.73;2.00;;;12.50;99.90;;;;;;5003002;28;20439;-67
2022/09/18 06:08:00;;;;;;;5.07;2.77;;;12.40;99.90;;;;;;5002721;28;20432;-67
2022/09/18 06:10:28;;;;;;;8.97;2.40;;;12.40;99.90;;;;;;5002024;28;20428;-69
2022/09/18 06:13:01;;;;;;;4.17;2.10;;;12.20;99.90;;;;;;4999284;28;20475;-68
2022/09/18 06:15:27;;;;;;;4.30;2.20;;;12.30;99.90;;;;;;5001777;28;20443;-67
2022/09/18 06:17:52;;;;;;;8.60;1.93;;;12.20;99.90;;;;;;5003677;28;20519;-68
2022/09/18 06:20:18;;;;;;;5.30;1.70;;;12.30;99.90;;;;;;5003754;28;20446;-68
2022/09/18 06:22:44;;;;;;;7.23;2.60;;;12.40;99.90;;;;;;5002611;28;20204;-67
2022/09/18 06:25:10;;;;;;;4.50;1.97;;;12.50;99.90;;;;;;5001930;28;20424;-68
2022/09/18 06:27:35;;;;;;;6.90;1.90;;;12.40;99.90;;;;;;5001259;28;20945;-67
2022/09/18 06:30:02;;;;;;;4.23;1.90;;;12.40;99.90;;;;;;5000791;28;20189;-68
2022/09/18 06:32:27;;;;;;;4.73;2.00;;;12.40;99.90;;;;;;5000443;28;20205;-68
2022/09/18 06:34:53;;;;;;;8.00;2.07;;;12.40;99.90;;;;;;5000665;28;20799;-69
2022/09/18 06:37:18;;;;;;;8.93;2.13;;;12.40;99.90;;;;;;5000628;28;20604;-69
2022/09/18 06:39:44;;;;;;;3.90;1.83;;;12.50;99.90;;;;;;5001113;28;20618;-69
2022/09/18 06:42:10;;;;;;;3.83;1.90;;;12.50;99.90;;;;;;4997925;28;20289;-68
2022/09/18 06:44:36;;;;;;;4.13;2.07;;;12.60;99.90;;;;;;4999569;28;20864;-68
2022/09/18 06:47:02;;;;;;;5.50;2.20;;;12.60;99.90;;;;;;5001347;28;20874;-68
2022/09/18 06:49:27;;;;;;;3.60;1.83;;;12.60;99.90;;;;;;5002500;28;20433;-69
2022/09/18 06:51:53;;;;;;;5.50;1.67;;;12.50;99.90;;;;;;5000797;28;20669;-69
2022/09/18 06:54:19;;;;;;;3.60;2.30;;;12.60;99.90;;;;;;5000776;28;20194;-69
2022/09/18 06:56:46;;;;;;;4.03;1.93;;;12.70;99.90;;;;;;5000100;28;20542;-69
2022/09/18 06:59:12;;;;;;;2.37;1.77;;;12.70;99.90;;;;;;4998464;28;20270;-69
2022/09/18 07:01:38;;;;;;;2.10;1.90;;;12.60;99.90;;;;;;5001382;28;20450;-70
2022/09/18 07:04:03;;;;;;;3.73;1.80;;;12.60;99.90;;;;;;5000100;28;20436;-70
2022/09/18 07:06:29;;;;;;;3.83;1.80;;;12.70;99.90;;;;;;4998605;28;20949;-69
2022/09/18 07:08:55;;;;;;;5.63;1.97;;;12.80;99.90;;;;;;4999877;28;20323;-70
2022/09/18 07:11:20;;;;;;;9.57;2.13;;;12.80;99.90;;;;;;5001392;28;20271;-69
2022/09/18 07:13:46;;;;;;;3.73;2.00;;;12.90;99.90;;;;;;4999418;28;20298;-69
2022/09/18 07:16:12;;;;;;;6.90;2.17;;;12.90;99.90;;;;;;4998019;28;20194;-70
2022/09/18 07:18:38;;;;;;;2.73;1.87;;;13.00;99.90;;;;;;5000652;28;20708;-70
2022/09/18 07:21:04;;;;;;;5.20;2.20;;;13.00;99.90;;;;;;4997502;28;20804;-68
2022/09/18 07:23:31;;;;;;;5.30;2.07;;;13.10;99.90;;;;;;4997463;28;20336;-67
2022/09/18 07:26:01;;;;;;;2.80;2.30;;;13.10;99.90;;;;;;4998089;28;20812;-67
2022/09/18 07:28:27;;;;;;;4.07;1.90;;;13.00;99.90;;;;;;4998947;28;20443;-68
2022/09/18 07:30:53;;;;;;;4.43;3.20;;;13.00;99.90;;;;;;4998128;28;20446;-69
2022/09/18 07:33:18;;;;;;;3.20;1.90;;;13.00;99.90;;;;;;4994370;28;20881;-66
2022/09/18 07:35:44;;;;;;;5.23;2.10;;;13.10;99.90;;;;;;4998231;28;21061;-66
2022/09/18 07:38:09;;;;;;;3.13;1.80;;;13.10;99.90;;;;;;4995922;28;20192;-66
2022/09/18 07:40:35;;;;;;;4.30;2.57;;;13.20;99.90;;;;;;4998904;28;20256;-67
2022/09/18 07:43:03;;;;;;;6.23;2.57;;;13.30;99.90;;;;;;4997604;28;20580;-66
2022/09/18 07:45:29;;;;;;;3.30;1.83;;;13.30;99.90;;;;;;4998341;28;20189;-66
2022/09/18 07:47:55;;;;;;;14.10;2.30;;;13.20;99.90;;;;;;4993216;28;20448;-68
2022/09/18 07:50:21;;;;;;;3.23;1.90;;;13.40;99.90;;;;;;5000110;28;20213;-68
2022/09/18 07:52:52;;;;;;;8.10;2.60;;;13.50;99.90;;;;;;4997952;28;20215;-67
2022/09/18 07:55:19;;;;;;;3.80;1.90;;;13.60;99.90;;;;;;4997286;28;20428;-68
2022/09/18 07:57:47;;;;;;;5.50;2.10;;;13.50;99.90;;;;;;4995782;28;20436;-70
2022/09/18 08:00:13;;;;;;;5.30;2.10;;;13.60;99.90;;;;;;4998112;28;20487;-70
2022/09/18 08:02:39;;;;;;;4.90;1.93;;;13.50;99.90;;;;;;4996163;28;20471;-69
2022/09/18 08:05:06;;;;;;;4.27;2.00;;;13.60;99.90;;;;;;4998992;28;20441;-70
2022/09/18 08:07:31;;;;;;;4.60;2.33;;;13.70;99.90;;;;;;4998806;28;20437;-68
2022/09/18 08:09:57;;;;;;;6.00;2.40;;;13.70;99.90;;;;;;4996086;28;20437;-70
2022/09/18 08:12:23;;;;;;;4.07;2.00;;;13.70;99.90;;;;;;4998219;28;20210;-70
2022/09/18 08:14:48;;;;;;;3.77;1.80;;;13.70;99.90;;;;;;4992363;28;20216;-68
2022/09/18 08:17:14;;;;;;;2.70;1.73;;;13.70;99.90;;;;;;4999169;28;20210;-71
2022/09/18 08:19:40;;;;;;;5.63;2.00;;;13.80;99.90;;;;;;4995440;28;20654;-70
2022/09/18 08:22:05;;;;;;;5.50;1.83;;;13.70;99.90;;;;;;4999731;28;20251;-70
2022/09/18 08:24:31;;;;;;;3.70;1.97;;;13.80;99.90;;;;;;4998874;28;20193;-69
2022/09/18 08:27:02;;;;;;;2.57;1.80;;;13.90;99.90;;;;;;4997969;28;20379;-70
2022/09/18 08:29:31;;;;;;;4.33;1.90;;;13.90;99.90;;;;;;4995426;28;20440;-69
2022/09/18 08:31:57;;;;;;;5.07;2.23;;;14.00;99.90;;;;;;4995005;28;20543;-67
2022/09/18 08:34:23;;;;;;;5.70;1.70;;;14.10;99.90;;;;;;4992038;28;20486;-69
2022/09/18 08:36:48;;;;;;;5.37;1.80;;;14.00;99.90;;;;;;4992445;28;20440;-71
2022/09/18 08:39:14;;;;;;;4.07;1.83;;;14.00;99.90;;;;;;4996384;28;20779;-68
2022/09/18 08:41:58;;;;;;;5.27;2.00;;;14.00;99.90;;;;;;4996696;28;20197;-69
2022/09/18 08:44:28;;;;;;;6.53;1.80;;;14.00;99.90;;;;;;4992344;28;20219;-69
2022/09/18 08:47:06;;;;;;;3.50;1.70;;;14.00;99.90;;;;;;4995091;28;20539;-68
2022/09/18 08:49:33;;;;;;;3.40;2.07;;;14.10;99.90;;;;;;4992784;28;20448;-69
2022/09/18 08:52:21;;;;;;;2.93;1.90;;;14.20;99.90;;;;;;4995259;28;20538;-69
2022/09/18 08:55:13;;;;;;;6.07;2.03;;;14.30;99.90;;;;;;4994619;28;20478;-69
2022/09/18 08:58:07;;;;;;;4.50;1.67;;;14.30;99.90;;;;;;4993435;28;20542;-68
2022/09/18 09:00:36;;;;;;;4.73;1.60;;;14.30;99.90;;;;;;4993759;28;20443;-69
2022/09/18 09:03:21;;;;;;;4.27;2.20;;;14.20;99.90;;;;;;4991546;28;20499;-68
2022/09/18 09:05:52;;;;;;;9.13;2.00;;;14.30;99.90;;;;;;4978672;28;20447;-70
2022/09/18 09:08:30;;;;;;;6.63;2.63;;;14.40;99.90;;;;;;4998798;28;20525;-71
2022/09/18 09:11:23;;;;;;;3.40;1.90;;;14.40;99.90;;;;;;4996312;28;20522;-68
2022/09/18 09:14:19;;;;;;;7.17;2.10;;;14.50;99.90;;;;;;4999035;28;20949;-69
2022/09/18 09:16:50;;;;;;;3.00;1.47;;;14.50;99.90;;;;;;4981741;28;20451;-69
2022/09/18 09:19:19;;;;;;;3.30;1.73;;;14.50;99.90;;;;;;4999538;28;20439;-68
2022/09/18 09:22:15;;;;;;;8.97;1.70;;;14.50;99.90;;;;;;4999267;28;21253;-69
2022/09/18 09:25:12;;;;;;;4.80;1.90;;;14.60;99.90;;;;;;5000671;28;20448;-68
2022/09/18 09:27:59;;;;;;;2.77;1.90;;;14.80;99.90;;;;;;4988205;28;20478;-67
2022/09/18 09:30:29;;;;;;;6.83;1.80;;;14.80;99.90;;;;;;4999624;28;20453;-69
2022/09/18 09:35:53;;;;;;;4.23;1.63;;;14.90;99.90;;;;;;5660198;22;20967;-67
2022/09/18 09:38:31;;;;;;;8.37;1.83;;;14.80;99.90;;;;;;5021322;28;20468;-68
2022/09/18 09:41:00;;;;;;;4.80;2.10;;;14.80;99.90;;;;;;5021130;28;21030;-70
2022/09/18 09:43:41;;;;;;;6.77;2.00;;;14.80;99.90;;;;;;5030695;28;20454;-70
2022/09/18 09:46:17;;;;;;;2.40;1.60;;;14.90;99.90;;;;;;5005177;28;20548;-69
2022/09/18 09:48:55;;;;;;;5.33;1.87;;;14.80;99.90;;;;;;4984743;28;20431;-70
2022/09/18 09:51:27;;;;;;;2.53;1.70;;;14.90;99.90;;;;;;4997564;28;20454;-70
2022/09/18 09:53:54;;;;;;;7.13;2.37;;;15.00;99.90;;;;;;4998277;28;20960;-70
2022/09/18 09:56:36;;;;;;;3.23;1.70;;;15.00;99.90;;;;;;4999218;28;20550;-68
2022/09/18 09:59:32;;;;;;;7.40;2.20;;;15.00;99.90;;;;;;4986572;28;20968;-69
2022/09/18 10:02:02;;;;;;;3.27;1.60;;;15.10;99.90;;;;;;4995863;28;20907;-69
2022/09/18 10:04:36;;;;;;;3.53;2.40;;;15.20;99.90;;;;;;4995011;28;20492;-69
2022/09/18 10:07:36;;;;;;;3.90;1.67;;;15.20;99.90;;;;;;4995866;28;20439;-69
2022/09/18 10:10:32;;;;;;;3.40;2.53;;;15.40;99.90;;;;;;4985697;28;20451;-69
2022/09/18 10:13:03;;;;;;;3.40;1.70;;;15.40;99.90;;;;;;4994534;28;20562;-69
2022/09/18 10:15:40;;;;;;;6.73;2.43;;;15.50;99.90;;;;;;4995584;28;20455;-69
2022/09/18 10:18:17;;;;;;;3.30;2.40;;;15.60;99.90;;;;;;4996438;28;20432;-69
2022/09/18 10:20:45;;;;;;;2.93;1.70;;;15.70;99.90;;;;;;4997950;28;21084;-69
2022/09/18 10:23:28;;;;;;;6.30;1.93;;;15.80;99.90;;;;;;4998028;28;20448;-68
2022/09/18 10:25:56;;;;;;;3.77;1.90;;;15.70;99.90;;;;;;4990265;28;20481;-69
2022/09/18 10:28:24;;;;;;;6.30;1.73;;;15.90;99.90;;;;;;4975163;28;20444;-68
2022/09/18 10:31:00;;;;;;;4.07;1.80;;;15.90;99.90;;;;;;4995161;28;20450;-68
2022/09/18 10:33:41;;;;;;;6.80;2.13;;;16.00;99.90;;;;;;4994066;28;20969;-69
2022/09/18 10:36:31;;;;;;;3.20;1.83;;;16.10;99.90;;;;;;4977546;28;20469;-67
2022/09/18 10:38:58;;;;;;;2.57;1.43;;;16.20;99.90;;;;;;4996372;28;20456;-67
2022/09/18 10:41:34;;;;;;;4.13;2.13;;;16.30;99.90;;;;;;4995754;28;20479;-69
2022/09/18 10:44:11;;;;;;;5.10;1.53;;;16.50;99.90;;;;;;4996565;28;20435;-68
2022/09/18 10:46:48;;;;;;;5.33;1.70;;;16.60;99.90;;;;;;4996732;28;20492;-70
2022/09/18 10:49:35;;;;;;;2.70;1.53;;;16.70;99.90;;;;;;4993296;28;20447;-69
2022/09/18 10:52:22;;;;;;;6.37;1.70;;;16.60;99.90;;;;;;4999137;28;20432;-69
2022/09/18 10:55:06;;;;;;;6.10;1.87;;;16.50;99.90;;;;;;4994338;28;20854;-69
2022/09/18 10:57:48;;;;;;;3.30;1.70;;;16.70;99.90;;;;;;4996242;28;20444;-69
2022/09/18 11:00:19;;;;;;;5.50;1.97;;;16.60;99.90;;;;;;4993116;28;20522;-68
2022/09/18 11:03:02;;;;;;;3.77;1.67;;;16.60;99.90;;;;;;4993918;28;20435;-69
2022/09/18 11:05:36;;;;;;;4.77;2.20;;;16.50;99.90;;;;;;4996690;28;20950;-68
2022/09/18 11:08:15;;;;;;;3.13;1.90;;;16.50;99.90;;;;;;4997258;28;20481;-70
2022/09/18 11:10:47;;;;;;;2.30;1.50;;;16.60;99.90;;;;;;4993219;28;20454;-70
2022/09/18 11:13:25;;;;;;;3.07;1.90;;;16.70;99.90;;;;;;4993119;28;20814;-69
2022/09/18 11:15:57;;;;;;;6.67;1.93;;;16.40;99.90;;;;;;4993545;28;20533;-68
2022/09/18 11:18:26;;;;;;;2.80;1.80;;;16.30;99.90;;;;;;4999456;28;20420;-68
2022/09/18 11:20:54;;;;;;;7.90;1.70;;;16.30;99.90;;;;;;4998340;28;20440;-67
2022/09/18 11:23:27;;;;;;;5.30;2.07;;;16.30;99.90;;;;;;4998001;28;20436;-68
2022/09/18 11:26:18;;;;;;;3.17;1.80;;;16.40;99.90;;;;;;4972094;28;20470;-69
2022/09/18 11:29:24;;;;;;;3.10;1.80;;;16.40;99.90;;;;;;5001047;28;20424;-69
2022/09/18 11:32:24;;;;;;;3.53;1.60;;;16.50;99.90;;;;;;4998308;28;20436;-69
2022/09/18 11:35:03;;;;;;;4.70;1.80;;;16.40;99.90;;;;;;4998297;28;20472;-68
2022/09/18 11:37:46;;;;;;;3.33;2.20;;;16.30;99.90;;;;;;4993614;28;20476;-68
2022/09/18 11:40:20;;;;;;;3.30;1.60;;;16.20;99.90;;;;;;4994606;28;20444;-67
2022/09/18 11:42:49;;;;;;;4.40;2.10;;;16.30;99.90;;;;;;4995476;28;20454;-68
2022/09/18 11:45:44;;;;;;;3.00;2.00;;;16.10;99.90;;;;;;4992432;28;20464;-69
2022/09/18 11:48:28;;;;;;;4.43;1.90;;;16.20;99.90;;;;;;4982844;28;20447;-68
2022/09/18 11:50:55;;;;;;;4.73;1.90;;;16.20;99.90;;;;;;4989367;28;20437;-68
2022/09/18 11:53:29;;;;;;;2.80;2.00;;;16.20;99.90;;;;;;4996877;28;21881;-68
2022/09/18 11:56:11;;;;;;;2.70;1.67;;;16.10;99.90;;;;;;4997298;28;20448;-68
2022/09/18 11:58:58;;;;;;;3.00;1.90;;;16.00;99.90;;;;;;4994312;28;20917;-68
2022/09/18 12:01:30;;;;;;;4.27;2.30;;;15.90;99.90;;;;;;4996457;28;20436;-68
2022/09/18 12:04:20;;;;;;;3.60;2.10;;;16.10;99.90;;;;;;4995974;28;20443;-68
2022/09/18 12:06:56;;;;;;;2.97;2.00;;;16.10;99.90;;;;;;4990819;28;20628;-68
2022/09/18 12:09:46;;;;;;;2.50;2.23;;;16.40;99.90;;;;;;4994469;28;20457;-68
2022/09/18 12:12:29;;;;;;;3.67;2.10;;;16.60;99.90;;;;;;4982632;28;20948;-69
2022/09/18 12:15:13;;;;;;;10.13;2.17;;;16.90;99.90;;;;;;4995618;28;20478;-68
2022/09/18 12:17:41;;;;;;;2.80;1.60;;;16.70;99.90;;;;;;4991254;28;21091;-68
2022/09/18 12:20:20;;;;;;;2.77;1.80;;;16.60;99.90;;;;;;4993264;28;20515;-68
2022/09/18 12:22:51;;;;;;;3.17;2.00;;;16.60;99.90;;;;;;4994368;28;20436;-68
2022/09/18 12:25:18;;;;;;;3.10;1.90;;;16.70;99.90;;;;;;4990476;28;20452;-68
2022/09/18 12:27:56;;;;;;;4.20;2.20;;;17.00;99.90;;;;;;4996451;28;20955;-68
2022/09/18 12:30:50;;;;;;;3.13;1.70;;;17.40;99.90;;;;;;4995719;28;20875;-68
2022/09/18 12:33:28;;;;;;;3.20;2.07;;;17.60;99.90;;;;;;4969214;28;20505;-68
2022/09/18 12:36:28;;;;;;;4.73;2.13;;;17.60;99.90;;;;;;4995465;28;20628;-68
2022/09/18 12:39:28;;;;;;;2.83;2.10;;;17.20;99.90;;;;;;4994866;28;20896;-69
2022/09/18 12:42:14;;;;;;;4.20;1.83;;;17.20;99.90;;;;;;4994498;28;20514;-68
2022/09/18 12:44:54;;;;;;;2.27;1.60;;;17.20;99.90;;;;;;4993383;28;20522;-68
2022/09/18 12:47:44;;;;;;;3.90;1.80;;;17.00;99.90;;;;;;4992050;28;20486;-68
2022/09/18 12:50:31;;;;;;;6.00;2.30;;;16.70;99.90;;;;;;4993471;28;20869;-68
2022/09/18 12:53:29;;;;;;;6.53;4.17;;;16.40;99.90;;;;;;4996815;28;20499;-68
2022/09/18 12:56:06;;;;;;;3.83;3.03;;;16.40;99.90;;;;;;4990934;28;20536;-68
2022/09/18 12:58:50;;;;;;;2.23;1.70;;;16.30;99.90;;;;;;4998144;28;20490;-68
2022/09/18 13:01:27;;;;;;;3.73;2.07;;;16.30;99.90;;;;;;4994701;28;21030;-67
2022/09/18 13:03:59;;;;;;;2.70;1.57;;;16.50;99.90;;;;;;4992915;28;20952;-68
2022/09/18 13:06:43;;;;;;;5.57;2.47;;;16.50;99.90;;;;;;4997277;28;20553;-68
2022/09/18 13:09:26;;;;;;;3.23;1.67;;;16.60;99.90;;;;;;4992988;28;21079;-68
2022/09/18 13:12:02;;;;;;;3.80;1.77;;;16.70;99.90;;;;;;4993385;28;20438;-68
2022/09/18 13:14:41;;;;;;;4.27;2.00;;;16.80;99.90;;;;;;4995491;28;20554;-68
2022/09/18 13:17:23;;;;;;;5.57;1.93;;;16.60;99.90;;;;;;4995452;28;20473;-69